Create Tblcommutelog Verified Points Advance Search
| # | Trip ID | Id Commuter | Trip Date | Trip Num | Current Lat | Current Lng | Delta Distance | Current Time | Activity | Activity Confidence | Current Speed | |
|---|---|---|---|---|---|---|---|---|---|---|---|---|
| 73301 | 250407_781299_0_1645 | 781299 | (not set) | (not set) | 38.952040299019 | -76.996017105338 | 3.8364 | 2025-04-07 21:35:22.208 | in_vehicle | 100 | 4.698382611961 | |
| 73302 | 250407_769309_16636345_1636 | 769309 | (not set) | (not set) | 38.99067267973 | -77.461986923648 | 29.9238 | 2025-04-07 21:35:22.235 | in_vehicle | 100 | 12.780852414459 | |
| 73303 | 250407_779684_16647372_1704 | 779684 | (not set) | (not set) | 39.44724692997 | -76.997044599533 | 19.7039 | 2025-04-07 21:35:23.26 | in_vehicle | 100 | 12.409809829499 | |
| 73304 | 250407_770933_16638086_1711 | 770933 | (not set) | (not set) | 38.879159172102 | -77.134533589778 | 6.0062 | 2025-04-07 21:35:23.592 | unknown | 100 | 11.569376022602 | |
| 73305 | 250407_780682_16648358_1727 | 780682 | (not set) | (not set) | 38.909507512091 | -77.043353412645 | 0.5851 | 2025-04-07 21:35:26.409 | on_foot | 66 | 1.8686241025687 | |
| 73306 | 250407_715163_0_1731 | 715163 | (not set) | (not set) | 38.8060077 | -77.0445767 | 0.0887 | 2025-04-07 21:35:26.606 | walking | 100 | -0.44703925898772 | |
| 73307 | 250407_783292_16651014_1627 | 783292 | (not set) | (not set) | 38.88457858442 | -77.141924624646 | 8.6864 | 2025-04-07 21:35:30.141 | in_vehicle | 100 | -0.44703925898772 | |
| 73308 | 250407_715163_0_1731 | 715163 | (not set) | (not set) | 38.8060343 | -77.0449933 | 0.0887 | 2025-04-07 21:35:30.547 | walking | 100 | -0.44703925898772 | |
| 73309 | 250407_781117_0_1724 | 781117 | (not set) | (not set) | 38.916314041424 | -77.037268451178 | 0.5305 | 2025-04-07 21:35:33.221 | on_foot | 100 | 0.3933945479092 | |
| 73310 | 250407_783292_16651014_1627 | 783292 | (not set) | (not set) | 38.886088327312 | -77.157010362927 | 17.3808 | 2025-04-07 21:36:12.887 | in_vehicle | 100 | -0.44703925898772 | |
| 73311 | 250407_783292_16651014_1627 | 783292 | (not set) | (not set) | 38.884578584863 | -77.141924625707 | 17.3808 | 2025-04-07 21:36:12.896 | in_vehicle | 100 | -0.44703925898772 | |
| 73312 | 250407_769309_16636345_1636 | 769309 | (not set) | (not set) | 38.983987600529 | -77.473872860208 | 30.7234 | 2025-04-07 21:36:13.389 | in_vehicle | 100 | 11.229626185772 | |
| 73313 | 250407_753953_16620128_1702 | 753953 | (not set) | (not set) | 38.873314932817 | -77.119023895914 | 5.5045 | 2025-04-07 21:36:13.408 | in_vehicle | 100 | 7.4879075880444 | |
| 73314 | 250407_715163_0_1731 | 715163 | (not set) | (not set) | 38.8063556 | -77.0453992 | 0.1391 | 2025-04-07 21:36:13.514 | walking | 100 | 0.53197671819539 | |
| 73315 | 250407_779684_16647372_1704 | 779684 | (not set) | (not set) | 39.457802951263 | -77.001499088933 | 20.4704 | 2025-04-07 21:36:14.845 | in_vehicle | 100 | 11.068692052536 | |
| 73316 | 250407_769783_16636848_1706 | 769783 | (not set) | (not set) | 38.905754503264 | -77.004190446048 | 5.8813 | 2025-04-07 21:36:15.508 | on_foot | 100 | 0.40233533308895 | |
| 73317 | 250407_767309_16634241_1627 | 767309 | (not set) | (not set) | 39.06254314827 | -77.160384314733 | 15.1393 | 2025-04-07 21:36:19.539 | in_vehicle | 100 | 1.0505422586212 | |
| 73318 | 250407_753953_16620128_1702 | 753953 | (not set) | (not set) | 38.872568096377 | -77.121229885915 | 5.6341 | 2025-04-07 21:36:23.263 | in_vehicle | 100 | 8.7217359428505 | |
| 73319 | 250407_769309_16636345_1636 | 769309 | (not set) | (not set) | 38.981840605141 | -77.476011037255 | 30.911 | 2025-04-07 21:36:25.391 | in_vehicle | 100 | 10.889876348941 | |
| 73320 | 250407_779684_16647372_1704 | 779684 | (not set) | (not set) | 39.460516106883 | -77.00251471462 | 20.6652 | 2025-04-07 21:36:26.691 | in_vehicle | 100 | 12.047708029719 |